Kennedy, Alabama
Current Conditions -  °F | °C
As of 7:58 AM on Wednesday 26 Nov 2014 (Local Time) from KCBM Reporting Station
Clear Clear  
Wind Chill: 32°   Ceiling: Unl
Heat Index: 32°   Visibility: 10mi
Dew Point: 29°   Wind: 0mph
Humidity: 90%   Direction: NA
Pressure: 30.2"   Gusts: NA
Location:  33.59°N, 87.98°W
Report Text: KCBM 261358Z AUTO 00000KT 10SM CLR 00/M02 A3020 RMK AO2 SLP231 T10021017 $
Loading
Personal Weather Stations






























Interactive Weather Map New forecast layout! Learn more

10-Day Weather Forecast

Advertisements
Track Severe Weather on mobile